Larsen Bay, AK (99624)

6:09 AM AKDT on July 23, 2016 (GMT -0800)
Kodiak | | Change Station

Elev 112 ft 57.75 °N, 152.49 °W | Updated 16 minutes ago

Scattered Clouds
Scattered Clouds
58 °F
Feels Like 58 °F
N
22
Wind Variable Wind from WNW
Gusts 34 mph

Today
High -- | Low -- °F
--% Chance of Precip.
Yesterday
High -- | Low -- °F
Precip. -- in
Pressure 29.65 in
Visibility 10.0 miles
Clouds Scattered Clouds 15000 ft
Dew Point 47 °F
Humidity 67%
Rainfall 0.00 in
Snow Depth Not available.
5:54 AM 10:45 PM
Waning Gibbous, 85% visible
METAR PADQ 231353Z 29019G30KT 10SM SCT150 14/08 A2964 RMK AO2 PK WND 29033/1327 SLP038 T01440083 $
Pressure 29.65 in
Visibility 10.0 miles
Clouds Scattered Clouds 15000 ft
Dew Point 47 °F
Humidity 67%
Rainfall 0.00 in
Snow Depth Not available.
5:54 AM 10:45 PM
Waning Gibbous, 85% visible
METAR PADQ 231353Z 29019G30KT 10SM SCT150 14/08 A2964 RMK AO2 PK WND 29033/1327 SLP038 T01440083 $

10-Day Weather Forecast

Almanac

Astronomy

Jul. 23, 2016 Rise Set
Actual Time
Civil Twilight
Nautical Twilight
Astronomical Twilight
Moon
Length of Visible Light
Length of Day
Tomorrow will be .
, % of the Moon is Illuminated

Today's Extremes

State Highs State Lows

Community

WunderPhotos

Upload Photos

1,926,821 photos uploaded!

WunderBlog® & News

Nearby

Air Quality

  Air Quality AQ Index Pollutant
Not available.

Snow Depth

Station Depth Elevation

Earthquake Activity

City Distance Mag. Time & Date
Minimum magnitude displayed is 2.5.

Coastal Water Temperatures

Place Temperature

Stations

Nearby Weather Stations

Station Location Temp. Windchill Dew Point Humidity Wind Precip. Elev Updated Type
                   

Watches & Warnings

There are currently no watches in effect.